地図

経路データ

SID SEASON NUMBER BASIN SUBBASIN NAME ISO_TIME NATURE LAT LON WMO_WIND WMO_PRES WMO_AGENCY TRACK_TYPE DIST2LAND LANDFALL IFLAG USA_AGENCY USA_ATCF_ID USA_LAT USA_LON USA_RECORD USA_STATUS USA_WIND USA_PRES USA_SSHS USA_R34_NE USA_R34_SE USA_R34_SW USA_R34_NW USA_R50_NE USA_R50_SE USA_R50_SW USA_R50_NW USA_R64_NE USA_R64_SE USA_R64_SW USA_R64_NW USA_POCI USA_ROCI USA_RMW USA_EYE TOKYO_LAT TOKYO_LON TOKYO_GRADE TOKYO_WIND TOKYO_PRES TOKYO_R50_DIR TOKYO_R50_LONG TOKYO_R50_SHORT TOKYO_R30_DIR TOKYO_R30_LONG TOKYO_R30_SHORT TOKYO_LAND CMA_LAT CMA_LON CMA_CAT CMA_WIND CMA_PRES HKO_LAT HKO_LON HKO_CAT HKO_WIND HKO_PRES NEWDELHI_LAT NEWDELHI_LON NEWDELHI_GRADE NEWDELHI_WIND NEWDELHI_PRES NEWDELHI_CI NEWDELHI_DP NEWDELHI_POCI REUNION_LAT REUNION_LON REUNION_TYPE REUNION_WIND REUNION_PRES REUNION_TNUM REUNION_CI REUNION_RMW REUNION_R34_NE REUNION_R34_SE REUNION_R34_SW REUNION_R34_NW REUNION_R50_NE REUNION_R50_SE REUNION_R50_SW REUNION_R50_NW REUNION_R64_NE REUNION_R64_SE REUNION_R64_SW REUNION_R64_NW BOM_LAT BOM_LON BOM_TYPE BOM_WIND BOM_PRES BOM_TNUM BOM_CI BOM_RMW BOM_R34_NE BOM_R34_SE BOM_R34_SW BOM_R34_NW BOM_R50_NE BOM_R50_SE BOM_R50_SW BOM_R50_NW BOM_R64_NE BOM_R64_SE BOM_R64_SW BOM_R64_NW BOM_ROCI BOM_POCI BOM_EYE BOM_POS_METHOD BOM_PRES_METHOD NADI_LAT NADI_LON NADI_CAT NADI_WIND NADI_PRES WELLINGTON_LAT WELLINGTON_LON WELLINGTON_WIND WELLINGTON_PRES DS824_LAT DS824_LON DS824_STAGE DS824_WIND DS824_PRES TD9636_LAT TD9636_LON TD9636_STAGE TD9636_WIND TD9636_PRES TD9635_LAT TD9635_LON TD9635_WIND TD9635_PRES TD9635_ROCI NEUMANN_LAT NEUMANN_LON NEUMANN_CLASS NEUMANN_WIND NEUMANN_PRES MLC_LAT MLC_LON MLC_CLASS MLC_WIND MLC_PRES USA_GUST BOM_GUST BOM_GUST_PER REUNION_GUST REUNION_GUST_PER USA_SEAHGT USA_SEARAD_NE USA_SEARAD_SE USA_SEARAD_SW USA_SEARAD_NW STORM_SPEED STORM_DIR
1977227N24144 1977 66 WP MM NOT_NAMED 1977-08-14 12:00:00 TS 24.0000 144.000 main 1279 1219 __O___________ -1 24.0000 144.000 0 996 11 339
1977227N24144 1977 66 WP MM NOT_NAMED 1977-08-14 15:00:00 TS 24.5152 143.783 main 1219 1160 __P___________ -1 24.5152 143.783 0 996 11 340
1977227N24144 1977 66 WP MM NOT_NAMED 1977-08-14 18:00:00 TS 25.0000 143.600 main 1160 1114 __O___________ -1 25.0000 143.600 0 996 10 342
1977227N24144 1977 66 WP MM NOT_NAMED 1977-08-14 21:00:00 TS 25.4296 143.452 main 1114 1063 __P___________ -1 25.4296 143.452 0 996 9 336
1977227N24144 1977 66 WP MM NOT_NAMED 1977-08-15 00:00:00 TS 25.8000 143.200 main 1063 1017 __O___________ -1 25.8000 143.200 0 19 996 10 315
1977227N24144 1977 66 WP MM NOT_NAMED 1977-08-15 03:00:00 TS 26.1152 142.702 main 1017 967 __P___________ -1 26.1152 142.702 0 19 996 12 301
1977227N24144 1977 66 WP MM NOT_NAMED 1977-08-15 06:00:00 TS 26.4000 142.100 main 967 918 __O___________ -1 26.4000 142.100 0 19 996 12 297
1977227N24144 1977 66 WP MM NOT_NAMED 1977-08-15 09:00:00 TS 26.6702 141.505 main 918 870 __P___________ -1 26.6702 141.505 0 21 996 12 301
1977227N24144 1977 66 WP MM NOT_NAMED 1977-08-15 12:00:00 TS 27.0000 141.000 main 870 817 __O___________ -1 27.0000 141.000 1 23 996 11 318
1977227N24144 1977 66 WP MM NOT_NAMED 1977-08-15 15:00:00 TS 27.4696 140.705 main 808 751 __P___________ -1 27.4696 140.705 1 23 996 11 336
1977227N24144 1977 66 WP MM NOT_NAMED 1977-08-15 18:00:00 TS 28.0000 140.500 main 751 707 __O___________ -1 28.0000 140.500 1 23 996 10 343
1977227N24144 1977 66 WP MM NOT_NAMED 1977-08-15 21:00:00 TS 28.4612 140.360 main 697 632 __P___________ -1 28.4612 140.360 1 26 996 11 336
1977227N24144 1977 66 WP MM NOT_NAMED 1977-08-16 00:00:00 TS 29.0000 140.000 main 632 517 __O___________ -1 29.0000 140.000 1 29 996 17 320
1977227N24144 1977 66 WP MM NOT_NAMED 1977-08-16 03:00:00 TS 29.7894 139.079 main 508 389 __P___________ -1 29.7894 139.079 1 29 996 23 311
1977227N24144 1977 66 WP MM NOT_NAMED 1977-08-16 06:00:00 TS 30.5000 138.000 main 384 318 __O___________ -1 30.5000 138.000 1 29 996 20 302
1977227N24144 1977 66 WP MM NOT_NAMED 1977-08-16 09:00:00 TS 30.8245 137.158 main 318 275 __P___________ -1 30.8245 137.158 1 29 996 14 291
1977227N24144 1977 66 WP MM NOT_NAMED 1977-08-16 12:00:00 TS 31.0000 136.500 main 275 246 __O___________ -1 31.0000 136.500 1 29 996 10 293
1977227N24144 1977 66 WP MM NOT_NAMED 1977-08-16 15:00:00 TS 31.2344 136.032 main 246 211 __P___________ -1 31.2344 136.032 1 29 996 8 306
1977227N24144 1977 66 WP MM NOT_NAMED 1977-08-16 18:00:00 TS 31.5000 135.700 main 212 182 __O___________ -1 31.5000 135.700 1 29 996 9 313
1977227N24144 1977 66 WP MM NOT_NAMED 1977-08-16 21:00:00 TS 31.8275 135.296 main 184 139 __P___________ -1 31.8275 135.296 1 26 997 9 324
1977227N24144 1977 66 WP MM NOT_NAMED 1977-08-17 00:00:00 TS 32.2000 135.100 main 139 100 __O___________ -1 32.2000 135.100 1 23 998 8 0
1977227N24144 1977 66 WP MM NOT_NAMED 1977-08-17 03:00:00 TS 32.6300 135.294 main 100 45 __P___________ -1 32.6300 135.294 1 21 999 9 32
1977227N24144 1977 66 WP MM NOT_NAMED 1977-08-17 06:00:00 TS 33.0000 135.700 main 45 29 __O___________ -1 33.0000 135.700 0 19 1000 8 51
1977227N24144 1977 66 WP MM NOT_NAMED 1977-08-17 09:00:00 TS 33.1573 136.064 main 35 35 __P___________ -1 33.1573 136.064 0 19 1000 7 66
1977227N24144 1977 66 WP MM NOT_NAMED 1977-08-17 12:00:00 TS 33.3000 136.500 main 57 57 __O___________ -1 33.3000 136.500 0 19 1000 9 61
1977227N24144 1977 66 WP MM NOT_NAMED 1977-08-17 15:00:00 TS 33.5972 137.006 main 78 64 __P___________ -1 33.5972 137.006 0 19 1001 12 53
1977227N24144 1977 66 WP MM NOT_NAMED 1977-08-17 18:00:00 TS 34.0000 137.600 main 72 22 __O___________ -1 34.0000 137.600 0 19 1002 14 51
1977227N24144 1977 66 WP MM NOT_NAMED 1977-08-17 21:00:00 TS 34.4779 138.307 main 14 0 __P___________ -1 34.4779 138.307 0 19 1003 15 49
1977227N24144 1977 66 WP MM NOT_NAMED 1977-08-18 00:00:00 TS 35.0000 139.000 main 0 0 __O___________ -1 35.0000 139.000 0 19 1004 14 43
1977227N24144 1977 66 WP MM NOT_NAMED 1977-08-18 03:00:00 TS 35.4981 139.458 main 0 0 __P___________ -1 35.4981 139.458 0 19 1004 13 39
1977227N24144 1977 66 WP MM NOT_NAMED 1977-08-18 06:00:00 ET 36.0000 140.000 main 0 0 __O___________ -1 36.0000 140.000 9 19 1004 16 49
1977227N24144 1977 66 WP MM NOT_NAMED 1977-08-18 09:00:00 ET 36.5391 140.960 main 34 28 __P___________ -1 36.5391 140.960 9 19 1004 19 58
1977227N24144 1977 66 WP MM NOT_NAMED 1977-08-18 12:00:00 ET 37.0000 142.000 main 88 88 __O___________ -1 37.0000 142.000 9 19 1004 16 63
1977227N24144 1977 66 WP MM NOT_NAMED 1977-08-18 15:00:00 ET 37.2862 142.790 main 158 158 __P___________ -1 37.2862 142.790 9 19 1004 13 67
1977227N24144 1977 66 WP MM NOT_NAMED 1977-08-18 18:00:00 ET 37.5000 143.500 main 196 196 __O___________ -1 37.5000 143.500 9 19 1004 13 69
1977227N24144 1977 66 WP MM NOT_NAMED 1977-08-18 21:00:00 ET 37.7501 144.288 main 250 250 __P___________ -1 37.7501 144.288 9 19 1004 13 67
1977227N24144 1977 66 WP MM NOT_NAMED 1977-08-19 00:00:00 ET 38.0000 145.000 main 299 299 __O___________ -1 38.0000 145.000 9 19 1004 11 63
1977227N24144 1977 66 WP MM NOT_NAMED 1977-08-19 03:00:00 ET 38.2492 145.538 main 327 327 __P___________ -1 38.2492 145.538 9 21 1004 9 58
1977227N24144 1977 66 WP MM NOT_NAMED 1977-08-19 06:00:00 ET 38.5000 146.000 main 353 353 __O___________ -1 38.5000 146.000 9 23 1004 9 56
1977227N24144 1977 66 WP MM NOT_NAMED 1977-08-19 09:00:00 ET 38.7650 146.522 main 386 386 __P___________ -1 38.7650 146.522 9 26 1003 9 57
1977227N24144 1977 66 WP MM NOT_NAMED 1977-08-19 12:00:00 ET 39.0000 147.000 main 424 424 __O___________ -1 39.0000 147.000 9 29 1002 8 58
1977227N24144 1977 66 WP MM NOT_NAMED 1977-08-19 15:00:00 ET 39.1721 147.366 main 455 455 __P___________ -1 39.1721 147.366 9 29 1002 6 61
1977227N24144 1977 66 WP MM NOT_NAMED 1977-08-19 18:00:00 ET 39.3000 147.700 main 467 467 __O___________ -1 39.3000 147.700 9 29 1002 6 69
1977227N24144 1977 66 WP MM NOT_NAMED 1977-08-19 21:00:00 ET 39.4001 148.115 main 474 472 __P___________ -1 39.4001 148.115 9 29 1002 6 72
1977227N24144 1977 66 WP MM NOT_NAMED 1977-08-20 00:00:00 ET 39.5000 148.500 main 481 476 __O___________ -1 39.5000 148.500 9 29 1002 6 64
1977227N24144 1977 66 WP MM NOT_NAMED 1977-08-20 03:00:00 ET 39.6498 148.773 main 485 471 __P___________ -1 39.6498 148.773 9 29 1001 5 52
1977227N24144 1977 66 WP MM NOT_NAMED 1977-08-20 06:00:00 ET 39.8000 149.000 main 476 473 __O___________ -1 39.8000 149.000 9 29 1000 4 51
1977227N24144 1977 66 WP MM NOT_NAMED 1977-08-20 09:00:00 ET 39.8991 149.176 main 478 475 __P___________ -1 39.8991 149.176 9 29 999 4 63
1977227N24144 1977 66 WP MM NOT_NAMED 1977-08-20 12:00:00 ET 40.0000 149.500 main 486 486 __O___________ -1 40.0000 149.500 9 29 998 8 71
1977227N24144 1977 66 WP MM NOT_NAMED 1977-08-20 15:00:00 ET 40.1498 150.137 main 513 512 __P___________ -1 40.1498 150.137 9 29 997 12 75
1977227N24144 1977 66 WP MM NOT_NAMED 1977-08-20 18:00:00 ET 40.3000 151.000 main 556 556 __O___________ -1 40.3000 151.000 9 29 996 14 79
1977227N24144 1977 66 WP MM NOT_NAMED 1977-08-20 21:00:00 ET 40.4234 152.000 main 603 603 __P___________ -1 40.4234 152.000 9 29 996 15 83
1977227N24144 1977 66 WP MM NOT_NAMED 1977-08-21 00:00:00 ET 40.5000 153.000 main 626 626 __O___________ -1 40.5000 153.000 9 29 996 14 86
1977227N24144 1977 66 WP MM NOT_NAMED 1977-08-21 03:00:00 ET 40.5137 153.788 main 656 656 __P___________ -1 40.5137 153.788 9 29 996 11 90
1977227N24144 1977 66 WP MM NOT_NAMED 1977-08-21 06:00:00 ET 40.5000 154.500 main 687 687 __O___________ -1 40.5000 154.500 9 29 996 11 91
1977227N24144 1977 66 WP MM NOT_NAMED 1977-08-21 09:00:00 ET 40.4995 155.250 main 725 725 __P___________ -1 40.4995 155.250 9 29 996 11 90
1977227N24144 1977 66 WP MM NOT_NAMED 1977-08-21 12:00:00 ET 40.5000 156.000 main 762 762 __O___________ -1 40.5000 156.000 9 29 996 11 90
1977227N24144 1977 66 WP MM NOT_NAMED 1977-08-21 15:00:00 ET 40.4995 156.750 main 805 805 __P___________ -1 40.4995 156.750 9 29 997 11 90
1977227N24144 1977 66 WP MM NOT_NAMED 1977-08-21 18:00:00 ET 40.5000 157.500 main 842 842 __O___________ -1 40.5000 157.500 9 29 998 11 89
1977227N24144 1977 66 WP MM NOT_NAMED 1977-08-21 21:00:00 ET 40.5220 158.249 main 882 882 __P___________ -1 40.5220 158.249 9 29 999 11 90
1977227N24144 1977 66 WP MM NOT_NAMED 1977-08-22 00:00:00 ET 40.5000 159.000 main 930 930 __O___________ -1 40.5000 159.000 9 29 1000 12 98
1977227N24144 1977 66 WP MM NOT_NAMED 1977-08-22 03:00:00 ET 40.3645 159.751 main 986 986 __P___________ -1 40.3645 159.751 9 29 1000 12 105
1977227N24144 1977 66 WP MM NOT_NAMED 1977-08-22 06:00:00 ET 40.2000 160.500 main 1045 1045 __O___________ -1 40.2000 160.500 9 29 1000 11 104
1977227N24144 1977 66 WP MM NOT_NAMED 1977-08-22 09:00:00 ET 40.0965 161.136 main 1091 1091 __P___________ -1 40.0965 161.136 9 29 1000 12 100
1977227N24144 1977 66 WP MM NOT_NAMED 1977-08-22 12:00:00 ET 40.0000 162.000 main 1156 1156 __O___________ -1 40.0000 162.000 9 29 1000 17 98
1977227N24144 1977 66 WP MM NOT_NAMED 1977-08-22 15:00:00 ET 39.8516 163.389 main 1256 1256 __P___________ -1 39.8516 163.389 9 29 1000 23 97
1977227N24144 1977 66 WP MM NOT_NAMED 1977-08-22 18:00:00 ET 39.7000 165.000 main 1365 1365 __O___________ -1 39.7000 165.000 9 29 1000 24 97
1977227N24144 1977 66 WP MM NOT_NAMED 1977-08-22 21:00:00 ET 39.5741 166.463 main 1438 1438 __P___________ -1 39.5741 166.463 9 29 1000 23 95
1977227N24144 1977 66 WP MM NOT_NAMED 1977-08-23 00:00:00 ET 39.5000 168.000 main 1518 1518 __O___________ -1 39.5000 168.000 9 29 1000 25 92
1977227N24144 1977 66 WP MM NOT_NAMED 1977-08-23 03:00:00 ET 39.4840 169.712 main 1603 1603 __P___________ -1 39.4840 169.712 9 26 1000 27 90
1977227N24144 1977 66 WP MM NOT_NAMED 1977-08-23 06:00:00 ET 39.5000 171.500 main 1700 1700 __O___________ -1 39.5000 171.500 9 23 1000 27 89
1977227N24144 1977 66 WP MM NOT_NAMED 1977-08-23 09:00:00 ET 39.5093 173.263 main 1791 1791 __P___________ -1 39.5093 173.263 9 23 1001 27 90
1977227N24144 1977 66 WP MM NOT_NAMED 1977-08-23 12:00:00 ET 39.5000 175.000 main 1879 __O___________ -1 39.5000 175.000 9 23 1002 27 90

デジタル台風データ・検索

IBTrACS Databaseについて

本データベースは、米国NOAAが公開する1842年以降の世界の熱帯低気圧のベストトラックデータアーカイブInternational Best Track Archive for Climate Stewardship (IBTrACS)を、ウェブで閲覧しやすい形式に変換したものです。

最終更新日:2021-11-26